Time;durP1;ratioP1;P1;durP2;ratioP2;P2;SDS_P1;SDS_P2;PMS_P1;PMS_P2;Temp;Humidity;BMP_temperature;BMP_pressure;BME280_temperature;BME280_humidity;BME280_pressure;Samples;Min_cycle;Max_cycle;Signal;HPM_P1;HPM_P2
2022/07/22 00:01:30;;;;;;;8.40;3.75;;;;;;;22.89;44.70;95502.88;5070961;28;20061;-82
2022/07/22 00:03:55;;;;;;;6.70;4.20;;;;;;;22.89;44.94;95508.34;5053219;28;20028;-80
2022/07/22 00:06:21;;;;;;;7.30;4.05;;;;;;;22.92;45.25;95508.66;5088573;28;20406;-80
2022/07/22 00:08:46;;;;;;;7.43;4.47;;;;;;;22.86;45.56;95503.38;5088416;28;20348;-80
2022/07/22 00:11:12;;;;;;;7.78;4.25;;;;;;;22.72;44.57;95506.47;5087644;28;20024;-80
2022/07/22 00:13:37;;;;;;;11.48;3.90;;;;;;;22.66;45.37;95499.28;5070232;28;20035;-80
2022/07/22 00:16:03;;;;;;;6.80;4.20;;;;;;;22.64;45.46;95501.44;5068813;28;20024;-80
2022/07/22 00:18:29;;;;;;;7.70;4.10;;;;;;;22.64;45.03;95506.91;5088479;28;20028;-80
2022/07/22 00:20:55;;;;;;;6.38;4.32;;;;;;;22.58;45.57;95506.00;5065455;28;20041;-80
2022/07/22 00:23:20;;;;;;;6.82;4.25;;;;;;;22.56;46.06;95508.13;5050319;28;20032;-80
2022/07/22 00:25:46;;;;;;;9.65;4.15;;;;;;;22.51;46.23;95511.63;5049144;28;20051;-80
2022/07/22 00:28:11;;;;;;;5.03;3.75;;;;;;;22.46;45.69;95514.28;5067296;28;20487;-80
2022/07/22 00:30:36;;;;;;;10.25;4.60;;;;;;;22.40;46.13;95509.81;5066317;28;20553;-80
2022/07/22 00:33:03;;;;;;;9.73;5.05;;;;;;;22.39;46.07;95510.91;5066487;28;20032;-80
2022/07/22 00:35:28;;;;;;;11.40;5.03;;;;;;;22.35;45.82;95511.41;5065336;28;20056;-80
2022/07/22 00:37:53;;;;;;;9.32;4.30;;;;;;;22.28;45.77;95512.66;5066538;28;20407;-80
2022/07/22 00:40:19;;;;;;;9.15;4.85;;;;;;;22.18;46.37;95516.06;5067944;28;20384;-80
2022/07/22 00:42:44;;;;;;;10.77;4.40;;;;;;;22.09;46.12;95513.75;5066752;28;20506;-80
2022/07/22 00:45:11;;;;;;;7.07;4.30;;;;;;;22.08;46.14;95516.72;5049278;28;20499;-80
2022/07/22 00:47:36;;;;;;;6.63;4.30;;;;;;;22.05;46.06;95523.53;5066834;28;20020;-80
2022/07/22 00:50:02;;;;;;;11.20;5.85;;;;;;;22.10;46.45;95514.59;5064968;28;20039;-80
2022/07/22 00:52:28;;;;;;;16.02;6.55;;;;;;;22.12;46.83;95520.59;5049504;28;20028;-80
2022/07/22 00:54:53;;;;;;;15.77;7.85;;;;;;;21.97;47.26;95518.47;5064767;28;20021;-80
2022/07/22 00:57:19;;;;;;;10.23;5.57;;;;;;;21.88;47.48;95518.03;5049293;28;20459;-80
2022/07/22 00:59:44;;;;;;;10.52;5.95;;;;;;;21.76;48.13;95520.81;5066494;28;20813;-80
2022/07/22 01:02:10;;;;;;;9.15;5.25;;;;;;;21.70;48.48;95528.06;5066724;28;20473;-80
2022/07/22 01:04:35;;;;;;;7.95;4.95;;;;;;;21.70;48.39;95528.06;5067587;28;20086;-80
2022/07/22 01:07:01;;;;;;;8.32;5.18;;;;;;;21.77;48.22;95525.22;5033370;28;20032;-80
2022/07/22 01:09:26;;;;;;;8.70;4.85;;;;;;;21.84;48.33;95517.69;5068013;28;20055;-80
2022/07/22 01:11:52;;;;;;;13.23;5.57;;;;;;;21.79;48.96;95514.06;5067005;28;20479;-80
2022/07/22 01:14:17;;;;;;;9.75;5.05;;;;;;;21.77;48.58;95519.78;5049053;28;20483;-81
2022/07/22 01:16:43;;;;;;;12.80;5.43;;;;;;;21.76;48.35;95515.38;5065271;28;20498;-80
2022/07/22 01:19:09;;;;;;;8.13;4.95;;;;;;;21.71;48.76;95515.28;5067557;28;20029;-80
2022/07/22 01:21:35;;;;;;;6.68;4.93;;;;;;;21.67;48.99;95512.19;5067102;28;20426;-80
2022/07/22 01:24:00;;;;;;;9.93;5.15;;;;;;;21.65;49.18;95519.78;5071308;28;20028;-80
2022/07/22 01:26:26;;;;;;;13.32;6.72;;;;;;;21.45;49.37;95526.56;5049670;28;20035;-80
2022/07/22 01:28:51;;;;;;;10.95;6.32;;;;;;;21.21;50.19;95515.75;5067342;28;20032;-80
2022/07/22 01:31:16;;;;;;;9.95;6.03;;;;;;;21.19;50.52;95527.94;5067064;28;20032;-80
2022/07/22 01:33:42;;;;;;;9.75;5.80;;;;;;;21.15;50.43;95521.34;5066693;28;20028;-80
2022/07/22 01:36:08;;;;;;;9.43;5.32;;;;;;;21.18;50.45;95523.56;5065811;28;20024;-80
2022/07/22 01:38:33;;;;;;;10.77;5.20;;;;;;;21.19;50.43;95522.50;5064831;28;20033;-80
2022/07/22 01:40:58;;;;;;;7.93;5.10;;;;;;;21.20;49.90;95524.16;5066359;28;20024;-80
2022/07/22 01:43:24;;;;;;;12.20;5.13;;;;;;;21.23;50.44;95513.59;5066088;28;20043;-80
2022/07/22 01:45:51;;;;;;;8.98;5.50;;;;;;;21.19;50.43;95522.50;5067613;28;20036;-80
2022/07/22 01:48:16;;;;;;;5.68;4.63;;;;;;;21.02;50.05;95523.28;5064496;28;20415;-80
2022/07/22 01:50:42;;;;;;;8.00;5.20;;;;;;;20.85;50.41;95520.44;5049015;28;20028;-80
2022/07/22 01:53:07;;;;;;;7.15;4.85;;;;;;;20.80;50.85;95525.75;5049601;28;20111;-80
2022/07/22 01:55:33;;;;;;;7.90;4.68;;;;;;;20.68;50.98;95528.53;5065077;28;20403;-80
2022/07/22 01:57:58;;;;;;;10.25;5.22;;;;;;;20.66;50.91;95531.50;5066538;28;20085;-80
2022/07/22 02:00:24;;;;;;;7.43;4.80;;;;;;;20.71;50.76;95534.34;5064390;28;20029;-79
2022/07/22 02:02:49;;;;;;;7.65;4.90;;;;;;;20.68;50.08;95540.25;5049194;28;20548;-80
2022/07/22 02:05:14;;;;;;;7.35;4.70;;;;;;;20.70;50.25;95537.28;5064318;28;20422;-80
2022/07/22 02:07:40;;;;;;;8.88;4.93;;;;;;;20.69;50.05;95535.63;5066262;28;20036;-79
2022/07/22 02:10:06;;;;;;;6.13;4.70;;;;;;;20.55;50.11;95544.06;5065857;28;20032;-79
2022/07/22 02:12:31;;;;;;;5.95;4.40;;;;;;;20.58;50.19;95545.47;5065382;28;20025;-80
2022/07/22 02:14:56;;;;;;;9.27;4.78;;;;;;;20.63;50.27;95542.88;5065248;28;20103;-80
2022/07/22 02:17:22;;;;;;;7.82;4.70;;;;;;;20.60;50.20;95533.25;5066180;28;20499;-80
2022/07/22 02:19:47;;;;;;;9.57;4.93;;;;;;;20.60;50.00;95541.44;5064816;28;20446;-80
2022/07/22 02:22:13;;;;;;;7.28;4.70;;;;;;;20.59;50.38;95538.94;5047440;28;20049;-80
2022/07/22 02:24:38;;;;;;;9.77;5.30;;;;;;;20.53;50.37;95532.56;5065262;28;20035;-80
2022/07/22 02:27:04;;;;;;;8.48;5.07;;;;;;;20.47;50.89;95536.25;5064265;28;20028;-80
2022/07/22 02:29:30;;;;;;;8.70;4.82;;;;;;;20.43;51.04;95537.75;5048301;28;20036;-80
2022/07/22 02:31:55;;;;;;;9.52;5.10;;;;;;;20.37;51.17;95540.41;5064346;28;20450;-80
2022/07/22 02:34:20;;;;;;;10.13;5.35;;;;;;;20.44;50.97;95542.97;5064971;28;20296;-79
2022/07/22 02:36:46;;;;;;;7.57;5.45;;;;;;;20.45;50.89;95546.53;5064343;28;20050;-80
2022/07/22 02:39:11;;;;;;;7.32;5.25;;;;;;;20.40;51.24;95543.69;5065901;28;20082;-81
2022/07/22 02:41:37;;;;;;;8.48;4.78;;;;;;;20.41;51.33;95537.19;5064441;28;20458;-81
2022/07/22 02:44:02;;;;;;;9.38;5.07;;;;;;;20.42;51.22;95541.56;5047428;28;20051;-80
2022/07/22 02:46:30;;;;;;;7.70;5.07;;;;;;;20.41;51.29;95537.19;5047962;28;20097;-82
2022/07/22 02:48:56;;;;;;;11.43;4.90;;;;;;;20.41;51.21;95539.91;5065087;28;20059;-79
2022/07/22 02:51:21;;;;;;;10.52;5.63;;;;;;;20.38;51.33;95536.59;5064348;28;20021;-80
2022/07/22 02:53:47;;;;;;;8.05;4.97;;;;;;;20.40;51.16;95533.63;5069435;28;20118;-79
2022/07/22 02:56:12;;;;;;;8.05;5.00;;;;;;;20.37;50.98;95534.09;5073719;28;20044;-80
2022/07/22 02:58:38;;;;;;;9.30;5.60;;;;;;;20.36;50.93;95543.34;5047954;28;20024;-81
2022/07/22 03:01:04;;;;;;;9.40;5.85;;;;;;;20.34;51.14;95546.31;5069773;28;20025;-80
2022/07/22 03:03:29;;;;;;;9.00;5.55;;;;;;;20.35;50.85;95541.69;5071157;28;20025;-80
2022/07/22 03:05:55;;;;;;;8.73;5.38;;;;;;;20.32;50.92;95537.53;5068181;28;20035;-80
2022/07/22 03:08:20;;;;;;;7.35;5.57;;;;;;;20.27;50.95;95542.88;5068756;28;20471;-80
2022/07/22 03:10:46;;;;;;;14.85;5.78;;;;;;;20.21;51.51;95541.94;5067401;28;20506;-79
2022/07/22 03:13:11;;;;;;;12.95;5.30;;;;;;;20.18;51.60;95541.56;5068467;28;20127;-80
2022/07/22 03:15:36;;;;;;;9.95;5.18;;;;;;;20.19;51.80;95546.78;5069082;28;20027;-80
2022/07/22 03:18:02;;;;;;;11.68;5.65;;;;;;;20.19;51.79;95551.38;5051467;28;20035;-80
2022/07/22 03:20:28;;;;;;;10.93;5.30;;;;;;;20.18;52.04;95547.00;5050594;28;20028;-79
2022/07/22 03:22:53;;;;;;;10.15;6.03;;;;;;;20.15;51.77;95545.59;5087431;28;20048;-80
2022/07/22 03:25:19;;;;;;;14.45;5.80;;;;;;;20.11;51.81;95542.50;5071024;28;20036;-80
2022/07/22 03:27:44;;;;;;;8.25;5.60;;;;;;;20.16;52.05;95544.53;5054333;28;20028;-79
2022/07/22 03:30:10;;;;;;;10.82;5.78;;;;;;;20.13;51.45;95550.44;5071340;28;20468;-80
2022/07/22 03:32:35;;;;;;;8.45;5.63;;;;;;;20.07;51.49;95548.66;5070740;28;20024;-79
2022/07/22 03:35:01;;;;;;;6.40;4.95;;;;;;;20.06;51.41;95547.81;5088853;28;20035;-80
2022/07/22 03:37:26;;;;;;;7.10;5.85;;;;;;;20.01;51.93;95550.38;5070264;28;20126;-80
2022/07/22 03:39:51;;;;;;;12.48;6.22;;;;;;;20.09;51.95;95549.22;5088846;28;20048;-80
2022/07/22 03:42:17;;;;;;;10.35;5.80;;;;;;;20.09;52.23;95560.13;5070595;28;20024;-80
2022/07/22 03:44:42;;;;;;;11.13;5.95;;;;;;;20.05;51.98;95553.50;5054154;28;20024;-80
2022/07/22 03:47:08;;;;;;;8.15;6.03;;;;;;;20.06;51.63;95556.00;5053626;28;20031;-80
2022/07/22 03:49:33;;;;;;;9.07;6.30;;;;;;;20.07;51.71;95562.28;5074372;28;20027;-78
2022/07/22 03:51:59;;;;;;;14.30;6.85;;;;;;;20.06;51.67;95560.59;5070824;28;20024;-80
2022/07/22 03:54:24;;;;;;;11.85;6.45;;;;;;;20.07;51.37;95559.53;5088001;28;20024;-80
2022/07/22 03:56:49;;;;;;;10.73;5.78;;;;;;;20.02;51.74;95568.38;5070756;28;20024;-80
2022/07/22 03:59:15;;;;;;;12.95;6.28;;;;;;;20.08;51.21;95569.38;5070160;28;20017;-80
2022/07/22 04:01:41;;;;;;;10.95;6.10;;;;;;;20.08;51.53;95569.38;5053640;28;20120;-81
2022/07/22 04:04:06;;;;;;;15.15;6.40;;;;;;;20.04;51.39;95571.72;5069997;28;20061;-81
2022/07/22 04:06:32;;;;;;;15.55;7.00;;;;;;;20.03;51.45;95570.06;5088338;28;20020;-80
2022/07/22 04:08:57;;;;;;;8.15;5.53;;;;;;;20.09;51.43;95574.56;5069986;28;20028;-81
2022/07/22 04:11:23;;;;;;;11.55;6.65;;;;;;;20.09;51.54;95576.47;5087724;28;20027;-81
2022/07/22 04:13:48;;;;;;;8.98;6.15;;;;;;;20.12;51.64;95576.81;5088232;28;20031;-80
2022/07/22 04:16:14;;;;;;;10.50;6.38;;;;;;;20.11;51.58;95575.19;5069250;28;20059;-81
2022/07/22 04:18:39;;;;;;;10.50;6.28;;;;;;;20.15;51.25;95575.53;5088561;28;20518;-80
2022/07/22 04:21:04;;;;;;;8.20;6.05;;;;;;;20.15;51.55;95570.09;5087167;28;20024;-79
2022/07/22 04:23:30;;;;;;;9.43;5.88;;;;;;;20.23;51.74;95567.00;5088036;28;20053;-80
2022/07/22 04:25:55;;;;;;;16.63;6.10;;;;;;;20.25;52.25;95572.22;5069771;28;20495;-80
2022/07/22 04:28:21;;;;;;;11.70;6.70;;;;;;;20.29;51.16;95587.03;5087553;28;20020;-80
2022/07/22 04:30:46;;;;;;;8.50;5.93;;;;;;;20.40;50.93;95585.38;5087899;28;20024;-80
2022/07/22 04:33:12;;;;;;;7.75;5.97;;;;;;;20.52;51.54;95584.56;5053112;28;20024;-81
2022/07/22 04:35:37;;;;;;;8.32;6.18;;;;;;;20.61;50.92;95594.88;5069888;28;20043;-80
2022/07/22 04:38:03;;;;;;;10.15;6.20;;;;;;;20.68;50.38;95588.47;5069067;28;20024;-80
2022/07/22 04:40:28;;;;;;;12.93;6.25;;;;;;;20.74;50.18;95591.06;5053015;28;20471;-81
2022/07/22 04:42:54;;;;;;;7.85;5.95;;;;;;;20.77;50.27;95589.75;5086891;28;20028;-81
2022/07/22 04:45:19;;;;;;;10.95;6.30;;;;;;;20.90;50.03;95594.13;5069405;28;20020;-81
2022/07/22 04:47:45;;;;;;;10.80;6.22;;;;;;;21.06;49.69;95594.50;5087691;28;20051;-80
2022/07/22 04:50:10;;;;;;;15.63;6.35;;;;;;;21.16;50.21;95594.72;5069088;28;20043;-80
2022/07/22 04:52:36;;;;;;;8.32;6.13;;;;;;;21.29;49.99;95588.16;5069711;28;20036;-81
2022/07/22 04:55:01;;;;;;;11.93;6.03;;;;;;;21.39;49.39;95595.72;5052369;28;20032;-80
2022/07/22 04:57:27;;;;;;;11.32;5.90;;;;;;;21.40;49.33;95596.53;5069367;28;20410;-81
2022/07/22 04:59:52;;;;;;;9.23;6.10;;;;;;;21.60;49.00;95591.47;5068913;28;20032;-81
2022/07/22 05:02:18;;;;;;;12.23;6.43;;;;;;;21.81;49.04;95597.34;5069526;28;20470;-80
2022/07/22 05:04:43;;;;;;;10.45;6.10;;;;;;;21.76;49.07;95596.41;5087075;28;20051;-81
2022/07/22 05:07:09;;;;;;;8.60;5.90;;;;;;;21.91;48.69;95599.44;5069112;28;20043;-81
2022/07/22 05:09:34;;;;;;;11.57;6.25;;;;;;;22.16;48.53;95602.88;5087190;28;20035;-81
2022/07/22 05:12:00;;;;;;;10.15;6.57;;;;;;;22.35;48.25;95600.72;5086894;28;20402;-83
2022/07/22 05:14:25;;;;;;;11.27;6.07;;;;;;;22.46;48.10;95598.97;5069116;28;20410;-80
2022/07/22 05:16:51;;;;;;;10.48;6.65;;;;;;;22.62;47.70;95599.28;5051823;28;20024;-80
2022/07/22 05:19:16;;;;;;;10.07;6.57;;;;;;;22.70;47.49;95602.41;5052157;28;20467;-80
2022/07/22 05:21:42;;;;;;;11.93;6.18;;;;;;;22.76;46.80;95603.31;5064839;28;20040;-80
2022/07/22 05:24:07;;;;;;;10.32;6.10;;;;;;;22.93;46.71;95596.97;5067112;28;20036;-82
2022/07/22 05:26:33;;;;;;;10.40;6.55;;;;;;;22.89;46.20;95601.31;5066463;28;20100;-80
2022/07/22 05:28:58;;;;;;;9.95;5.88;;;;;;;23.03;46.38;95608.06;5066962;28;20081;-81
2022/07/22 05:31:24;;;;;;;10.93;6.03;;;;;;;23.04;45.60;95604.25;5065247;28;20025;-80
2022/07/22 05:33:49;;;;;;;10.00;5.97;;;;;;;23.28;45.76;95604.00;5065583;28;20453;-81
2022/07/22 05:36:15;;;;;;;11.25;5.95;;;;;;;23.49;46.16;95598.81;5065306;28;20024;-80
2022/07/22 05:38:40;;;;;;;11.45;6.88;;;;;;;23.63;45.07;95595.69;5065049;28;20016;-81
2022/07/22 05:41:05;;;;;;;12.77;6.38;;;;;;;23.78;45.29;95598.56;5065112;28;20025;-81
2022/07/22 05:43:31;;;;;;;11.85;6.55;;;;;;;23.81;46.21;95600.00;5065853;28;20020;-81
2022/07/22 05:45:56;;;;;;;14.00;6.65;;;;;;;23.97;45.61;95600.13;5048458;28;20025;-80
2022/07/22 05:48:22;;;;;;;10.80;6.30;;;;;;;24.12;45.43;95602.22;5047607;28;20036;-81
2022/07/22 05:50:47;;;;;;;12.80;6.70;;;;;;;24.25;44.44;95606.44;5064719;28;20548;-80
2022/07/22 05:53:13;;;;;;;11.85;6.75;;;;;;;24.37;44.59;95600.78;5048002;28;20040;-81
2022/07/22 05:55:38;;;;;;;10.98;5.75;;;;;;;24.47;43.99;95600.91;5064903;28;20108;-81
2022/07/22 05:58:04;;;;;;;13.70;6.82;;;;;;;24.53;44.16;95593.53;5066088;28;20430;-81
2022/07/22 06:00:29;;;;;;;8.82;6.57;;;;;;;24.67;44.81;95596.63;5072332;28;20032;-81
2022/07/22 06:02:54;;;;;;;10.35;6.10;;;;;;;24.85;45.31;95602.78;5072409;28;20416;-81
2022/07/22 06:05:20;;;;;;;9.85;6.07;;;;;;;24.79;43.82;95601.94;5066463;28;20043;-81
2022/07/22 06:07:45;;;;;;;9.32;6.22;;;;;;;24.83;44.10;95592.06;5048200;28;20024;-81
2022/07/22 06:10:11;;;;;;;12.07;6.63;;;;;;;24.74;43.93;95599.16;5064593;28;20024;-80
2022/07/22 06:12:36;;;;;;;13.15;6.15;;;;;;;24.84;44.05;95599.22;5064258;28;20021;-81
2022/07/22 06:15:02;;;;;;;12.40;5.60;;;;;;;24.83;43.44;95596.75;5048172;28;20044;-81
2022/07/22 06:17:27;;;;;;;11.63;5.85;;;;;;;24.68;43.25;95601.03;5066297;28;20027;-81
2022/07/22 06:19:52;;;;;;;15.77;6.40;;;;;;;24.77;42.92;95601.38;5064169;28;20150;-81
2022/07/22 06:22:18;;;;;;;14.73;5.55;;;;;;;24.98;42.79;95599.63;5047238;28;20044;-82
2022/07/22 06:24:44;;;;;;;12.75;6.38;;;;;;;25.02;42.76;95603.47;5065625;28;20449;-82
2022/07/22 06:27:09;;;;;;;9.85;6.03;;;;;;;25.23;43.43;95603.56;5047623;28;20024;-82
2022/07/22 06:29:35;;;;;;;8.68;5.60;;;;;;;25.50;43.78;95591.63;5064308;28;20029;-82
2022/07/22 06:32:01;;;;;;;12.45;5.45;;;;;;;25.78;42.73;95592.28;5065437;28;20035;-81
2022/07/22 06:34:26;;;;;;;8.35;5.50;;;;;;;25.96;42.68;95594.78;5064437;28;20020;-82
2022/07/22 06:36:51;;;;;;;9.23;6.20;;;;;;;25.86;41.68;95601.09;5064022;28;20507;-81
2022/07/22 06:39:17;;;;;;;9.98;5.22;;;;;;;25.79;42.18;95596.66;5064158;28;20028;-82
2022/07/22 06:41:42;;;;;;;8.55;5.55;;;;;;;25.87;41.57;95597.25;5065538;28;20380;-81
2022/07/22 06:44:08;;;;;;;13.15;5.65;;;;;;;25.64;40.96;95593.88;5064113;28;20563;-80
2022/07/22 06:46:33;;;;;;;10.57;5.45;;;;;;;25.37;41.94;95595.69;5065905;28;20498;-81
2022/07/22 06:48:59;;;;;;;14.27;5.45;;;;;;;25.06;43.42;95601.84;5063480;28;20032;-82
2022/07/22 06:51:24;;;;;;;9.77;4.95;;;;;;;25.08;43.33;95598.00;5047030;28;20426;-82
2022/07/22 06:53:49;;;;;;;10.20;5.45;;;;;;;25.00;43.71;95593.84;5063603;28;20463;-81
2022/07/22 06:56:15;;;;;;;8.80;5.75;;;;;;;25.11;43.48;95590.09;5065105;28;20388;-80
2022/07/22 06:58:42;;;;;;;7.95;5.00;;;;;;;25.17;42.33;95594.50;5064551;28;20029;-82
2022/07/22 07:01:07;;;;;;;13.15;5.88;;;;;;;25.26;42.58;95592.06;5063701;28;20212;-84
2022/07/22 07:03:33;;;;;;;10.70;6.00;;;;;;;25.34;42.76;95590.75;5047290;28;20020;-81
2022/07/22 07:05:58;;;;;;;10.70;5.20;;;;;;;25.46;42.73;95589.66;5046357;28;20029;-82
2022/07/22 07:08:24;;;;;;;10.30;5.70;;;;;;;25.59;42.00;95597.41;5048165;28;20056;-79
2022/07/22 07:10:49;;;;;;;17.35;5.95;;;;;;;25.59;41.65;95591.09;5065707;28;20040;-81
2022/07/22 07:13:15;;;;;;;9.55;4.70;;;;;;;25.70;41.34;95601.03;5046781;28;20027;-81
2022/07/22 07:15:40;;;;;;;8.82;4.80;;;;;;;25.64;41.56;95597.47;5063703;28;20032;-83
2022/07/22 07:18:06;;;;;;;20.98;6.55;;;;;;;25.76;41.10;95596.41;5065471;28;20035;-81
2022/07/22 07:20:31;;;;;;;36.25;8.98;;;;;;;25.98;40.80;95603.56;5063544;28;20109;-81
2022/07/22 07:23:00;;;;;;;11.57;5.15;;;;;;;25.89;40.38;95595.88;5063778;28;20121;-83
2022/07/22 07:25:25;;;;;;;12.68;5.10;;;;;;;25.87;40.84;95591.75;5064063;28;20036;-81
2022/07/22 07:27:51;;;;;;;101.70;13.85;;;;;;;26.04;40.38;95592.34;5064810;28;20051;-82
2022/07/22 07:30:16;;;;;;;43.40;8.75;;;;;;;26.23;39.53;95600.03;5070327;28;20386;-80
2022/07/22 07:32:41;;;;;;;12.73;4.85;;;;;;;26.18;40.41;95597.31;5084211;28;20652;-81
2022/07/22 07:35:07;;;;;;;9.93;4.80;;;;;;;26.25;39.45;95597.00;5076264;28;20035;-80
2022/07/22 07:37:33;;;;;;;11.70;5.15;;;;;;;26.28;39.75;95596.47;5085331;28;20125;-80
2022/07/22 07:39:58;;;;;;;35.10;7.90;;;;;;;26.36;38.88;95592.41;5079978;28;20032;-80
2022/07/22 07:42:24;;;;;;;92.07;12.95;;;;;;;26.72;38.58;95589.63;5075231;28;20074;-81
2022/07/22 07:44:50;;;;;;;92.93;12.63;;;;;;;26.64;38.43;95590.16;5079366;28;20016;-80
2022/07/22 07:47:18;;;;;;;13.30;5.57;;;;;;;26.64;39.59;95592.91;5086300;28;20032;-82
2022/07/22 07:49:47;;;;;;;36.13;7.45;;;;;;;26.68;39.49;95598.69;5086991;28;20035;-81
2022/07/22 07:52:12;;;;;;;26.63;6.45;;;;;;;26.86;38.16;95592.59;5100980;28;20081;-80
2022/07/22 07:54:39;;;;;;;70.03;10.45;;;;;;;26.93;37.91;95595.06;5084062;28;20032;-83
2022/07/22 07:57:05;;;;;;;21.20;5.75;;;;;;;26.79;38.56;95590.13;5085829;28;20031;-81
2022/07/22 07:59:31;;;;;;;10.82;4.20;;;;;;;26.85;37.98;95596.47;5084061;28;20107;-81
2022/07/22 08:01:58;;;;;;;86.72;9.65;;;;;;;26.87;37.40;95594.28;5077808;28;20020;-82
2022/07/22 08:04:23;;;;;;;8.52;4.00;;;;;;;26.84;36.85;95591.25;5085921;28;20032;-81
2022/07/22 08:06:49;;;;;;;8.77;4.60;;;;;;;26.83;36.72;95595.09;5085508;28;20020;-81
2022/07/22 08:09:14;;;;;;;9.75;4.63;;;;;;;27.06;36.65;95593.72;5083002;28;20020;-81
2022/07/22 08:11:40;;;;;;;12.32;4.13;;;;;;;27.11;34.38;95590.13;5054641;28;20021;-80
2022/07/22 08:14:05;;;;;;;5.82;4.00;;;;;;;27.22;35.32;95591.72;5079456;28;20020;-81
2022/07/22 08:16:31;;;;;;;10.65;4.72;;;;;;;27.40;35.45;95587.53;5077500;28;20028;-81
2022/07/22 08:18:56;;;;;;;21.85;5.60;;;;;;;27.35;35.03;95587.56;5079195;28;20016;-80
2022/07/22 08:21:23;;;;;;;33.35;7.00;;;;;;;27.68;33.95;95587.16;5079024;28;20071;-80
2022/07/22 08:23:48;;;;;;;14.00;4.00;;;;;;;27.68;34.63;95592.66;5106448;28;20035;-81
2022/07/22 08:26:13;;;;;;;16.05;4.78;;;;;;;27.89;34.95;95584.31;5099507;28;20024;-83
2022/07/22 08:28:39;;;;;;;7.55;4.10;;;;;;;28.04;34.32;95591.63;5084307;28;20022;-80
2022/07/22 08:31:04;;;;;;;65.85;12.65;;;;;;;28.08;34.04;95589.13;5084886;28;20787;-82
2022/07/22 08:33:30;;;;;;;10.88;4.50;;;;;;;28.37;35.04;95591.97;5089247;28;20023;-81
2022/07/22 08:35:55;;;;;;;10.00;4.22;;;;;;;28.55;33.90;95588.81;5105664;28;20085;-81
2022/07/22 08:38:21;;;;;;;8.15;3.50;;;;;;;28.68;33.82;95588.13;5088949;28;20023;-83
2022/07/22 08:40:47;;;;;;;10.80;4.47;;;;;;;28.72;33.12;95586.44;5087585;28;20032;-82
2022/07/22 08:43:12;;;;;;;34.33;7.07;;;;;;;28.69;33.49;95581.50;5080492;28;20152;-83
2022/07/22 08:45:39;;;;;;;8.05;3.92;;;;;;;28.53;33.85;95582.75;5099501;28;20023;-83
2022/07/22 08:48:05;;;;;;;206.35;23.65;;;;;;;28.43;33.47;95584.50;5073664;28;20031;-82
2022/07/22 08:50:31;;;;;;;22.25;5.75;;;;;;;28.44;33.90;95580.59;5062335;28;20027;-81
2022/07/22 08:52:57;;;;;;;89.85;13.63;;;;;;;28.37;33.72;95578.19;5081100;28;20424;-81
2022/07/22 08:55:22;;;;;;;142.80;17.45;;;;;;;28.41;34.10;95578.44;5076460;28;20024;-81
2022/07/22 08:57:48;;;;;;;55.03;10.10;;;;;;;28.53;33.71;95588.25;5084685;28;20020;-83
2022/07/22 09:00:19;;;;;;;42.22;7.95;;;;;;;28.75;32.88;95585.84;5068117;28;20048;-81
2022/07/22 09:02:45;;;;;;;63.28;10.02;;;;;;;29.17;32.97;95585.47;5067659;28;20081;-81
2022/07/22 09:05:13;;;;;;;13.93;4.70;;;;;;;29.40;33.36;95582.16;5073787;28;20076;-82
2022/07/22 09:07:40;;;;;;;89.20;12.48;;;;;;;29.29;32.85;95585.06;5075682;28;20486;-81
2022/07/22 09:10:07;;;;;;;25.45;7.32;;;;;;;29.38;32.91;95590.75;5052746;28;20020;-82
2022/07/22 09:12:34;;;;;;;15.15;4.35;;;;;;;29.10;33.56;95590.53;5051878;28;20040;-82
2022/07/22 09:15:00;;;;;;;9.80;4.25;;;;;;;29.23;33.71;95587.03;5052164;28;20100;-81
2022/07/22 09:17:36;;;;;;;170.70;20.08;;;;;;;29.07;32.71;95588.31;5050521;28;20032;-81
2022/07/22 09:20:04;;;;;;;74.93;12.10;;;;;;;29.16;33.33;95583.81;5068376;28;20024;-82
2022/07/22 09:22:40;;;;;;;14.85;5.05;;;;;;;29.43;32.74;95576.88;5067771;28;20047;-82
2022/07/22 09:25:18;;;;;;;20.00;5.20;;;;;;;29.49;32.46;95586.75;5086977;28;20047;-82
2022/07/22 09:27:44;;;;;;;60.33;10.27;;;;;;;29.20;32.30;95584.88;5086185;28;20052;-82
2022/07/22 09:30:23;;;;;;;18.08;5.53;;;;;;;29.39;33.01;95586.84;5052003;28;20232;-80
2022/07/22 09:32:49;;;;;;;13.07;4.10;;;;;;;29.73;31.77;95579.53;5068715;28;20039;-81
2022/07/22 09:35:15;;;;;;;10.80;3.90;;;;;;;30.03;31.53;95582.19;5051775;28;20038;-82
2022/07/22 09:37:51;;;;;;;16.08;4.70;;;;;;;29.98;32.35;95580.31;5051456;28;20031;-81
2022/07/22 09:40:28;;;;;;;15.93;5.22;;;;;;;29.67;32.37;95584.34;5086550;28;20484;-83
2022/07/22 09:42:55;;;;;;;97.15;13.55;;;;;;;29.63;31.53;95582.47;5068673;28;20032;-82
2022/07/22 09:45:21;;;;;;;93.18;11.13;;;;;;;29.31;32.29;95576.47;5067917;28;20062;-82
2022/07/22 09:47:47;;;;;;;102.10;14.63;;;;;;;29.35;32.24;95572.84;5067533;28;20032;-81
2022/07/22 09:50:23;;;;;;;14.57;4.80;;;;;;;29.41;30.98;95573.56;5067819;28;20097;-85
2022/07/22 09:52:50;;;;;;;23.40;6.63;;;;;;;29.29;31.00;95570.41;5051552;28;20196;-81
2022/07/22 09:55:17;;;;;;;9.05;4.20;;;;;;;29.41;31.49;95562.53;5051946;28;20427;-81
2022/07/22 09:57:43;;;;;;;43.05;9.70;;;;;;;29.40;31.07;95566.41;5067325;28;20059;-80
2022/07/22 10:00:09;;;;;;;10.82;4.18;;;;;;;29.60;31.59;95559.81;5086066;28;20068;-82
2022/07/22 10:02:39;;;;;;;7.43;4.45;;;;;;;29.72;32.13;95556.63;5051065;28;20016;-80
2022/07/22 10:05:05;;;;;;;52.65;10.18;;;;;;;29.65;30.96;95561.69;5051542;28;20115;-83
2022/07/22 10:07:30;;;;;;;22.00;5.78;;;;;;;29.68;30.93;95554.78;5067313;28;20028;-82
2022/07/22 10:09:56;;;;;;;60.67;9.25;;;;;;;29.45;31.66;95549.78;5050747;28;20020;-81
2022/07/22 10:12:21;;;;;;;14.63;4.82;;;;;;;29.25;32.39;95556.38;5085842;28;20020;-81
2022/07/22 10:14:47;;;;;;;14.82;4.28;;;;;;;29.12;32.13;95555.13;5067082;28;20028;-80
2022/07/22 10:17:13;;;;;;;62.33;10.30;;;;;;;29.07;31.82;95546.91;5085805;28;20040;-81
2022/07/22 10:19:39;;;;;;;83.10;9.23;;;;;;;29.10;31.29;95541.63;5053954;28;20024;-81
2022/07/22 10:22:04;;;;;;;17.55;4.80;;;;;;;29.48;31.24;95545.59;5067814;28;20467;-81
2022/07/22 10:24:29;;;;;;;18.05;4.65;;;;;;;29.84;30.73;95547.09;5067343;28;20077;-81
2022/07/22 10:26:56;;;;;;;8.88;3.55;;;;;;;30.20;29.75;95541.03;5067337;28;20070;-82
2022/07/22 10:29:32;;;;;;;8.25;3.72;;;;;;;30.06;29.89;95537.34;5050581;28;20031;-81
2022/07/22 10:32:16;;;;;;;7.15;3.53;;;;;;;29.91;29.99;95536.47;5050516;28;20478;-82
2022/07/22 10:35:03;;;;;;;6.88;3.67;;;;;;;29.76;30.23;95533.94;5085090;28;20388;-82
2022/07/22 10:37:34;;;;;;;54.42;8.27;;;;;;;30.05;30.78;95538.47;5084659;28;20024;-81
2022/07/22 10:40:19;;;;;;;9.05;4.00;;;;;;;30.30;30.76;95540.03;5084810;28;20038;-81
2022/07/22 10:42:57;;;;;;;9.73;3.60;;;;;;;30.09;31.38;95536.75;5066687;28;20064;-81
2022/07/22 10:45:38;;;;;;;13.73;4.90;;;;;;;29.96;29.47;95536.38;5084729;28;20048;-80
2022/07/22 10:48:09;;;;;;;10.93;4.30;;;;;;;30.01;30.34;95542.94;5052088;28;20118;-80
2022/07/22 10:50:37;;;;;;;5.95;3.70;;;;;;;30.13;29.58;95537.81;5050597;28;20085;-81
2022/07/22 10:53:09;;;;;;;4.68;3.10;;;;;;;30.57;27.96;95537.63;5084879;28;20258;-81
2022/07/22 10:55:35;;;;;;;5.25;3.72;;;;;;;30.89;26.70;95540.72;5066867;28;20077;-80
2022/07/22 10:58:31;;;;;;;8.00;3.28;;;;;;;30.89;27.88;95546.25;5050142;28;20118;-80
2022/07/22 11:00:56;;;;;;;8.35;3.72;;;;;;;31.08;28.05;95535.09;5070080;28;20020;-80
2022/07/22 11:03:25;;;;;;;3.85;2.90;;;;;;;31.25;26.09;95533.63;5066556;28;20071;-80
2022/07/22 11:05:51;;;;;;;6.65;3.13;;;;;;;31.28;27.31;95535.78;5049994;28;20028;-81
2022/07/22 11:08:18;;;;;;;7.20;3.42;;;;;;;31.08;26.03;95532.31;5066666;28;20024;-80
2022/07/22 11:10:48;;;;;;;4.97;3.42;;;;;;;31.20;27.38;95527.06;5084965;28;20047;-82
2022/07/22 11:13:28;;;;;;;7.03;3.20;;;;;;;31.51;25.90;95524.81;5085039;28;20454;-82
2022/07/22 11:15:53;;;;;;;18.63;3.63;;;;;;;30.97;26.80;95528.91;5051145;28;20032;-80
2022/07/22 11:18:18;;;;;;;7.05;4.03;;;;;;;30.68;27.43;95527.22;5050193;28;20140;-82
2022/07/22 11:20:44;;;;;;;10.57;3.80;;;;;;;30.46;27.08;95528.69;5068047;28;20452;-82
2022/07/22 11:23:09;;;;;;;9.57;3.63;;;;;;;30.51;27.18;95525.03;5036901;28;20406;-81
2022/07/22 11:25:35;;;;;;;8.82;3.10;;;;;;;30.53;27.28;95531.09;5070526;28;20020;-81